Terminal Aerodrome Forecast
Issued by NWS

Home | Current Version | Previous Version | Graphics & Text | Print | Product List | Glossary On
Versions: 1 2 3 4 5 6 7 8 9 10 11 12 13
000
FTUS43 KICT 181100
TAFHUT
TAF
KHUT 181132Z 1812/1912 10011KT P6SM SCT010 BKN020
      TEMPO 1812/1816 5SM BR BKN004
     FM181600 09008KT P6SM SCT010 BKN025
     FM181800 11009KT P6SM SCT020 BKN035
     FM190700 15007KT P6SM BKN013=

USA.gov is the U.S. government's official web portal to all federal, state and local government web resources and services.